Time;durP1;ratioP1;P1;durP2;ratioP2;P2;SDS_P1;SDS_P2;PMS_P1;PMS_P2;Temp;Humidity;BMP_temperature;BMP_pressure;BME280_temperature;BME280_humidity;BME280_pressure;Samples;Min_cycle;Max_cycle;Signal;HPM_P1;HPM_P2
2021/08/04 00:00:11;;;;;;;17.73;9.52;;;13.00;99.90;;;;;;5006375;28;20038;-68
2021/08/04 00:02:37;;;;;;;19.10;10.23;;;13.00;99.90;;;;;;5010522;28;20027;-68
2021/08/04 00:05:04;;;;;;;22.48;10.90;;;13.10;99.90;;;;;;5006725;28;20034;-68
2021/08/04 00:07:30;;;;;;;21.52;10.63;;;13.20;99.90;;;;;;5005427;28;20026;-67
2021/08/04 00:09:56;;;;;;;23.50;10.63;;;13.30;99.90;;;;;;5004332;28;20034;-68
2021/08/04 00:12:21;;;;;;;24.60;11.07;;;13.10;99.90;;;;;;5006898;28;20029;-67
2021/08/04 00:14:47;;;;;;;25.25;12.40;;;13.00;99.90;;;;;;5005219;28;20026;-68
2021/08/04 00:17:12;;;;;;;21.75;11.50;;;12.90;99.90;;;;;;4988295;28;20045;-68
2021/08/04 00:19:38;;;;;;;23.45;11.05;;;12.90;99.90;;;;;;5005904;28;20591;-67
2021/08/04 00:22:04;;;;;;;21.70;11.65;;;12.80;99.90;;;;;;5005655;28;20040;-67
2021/08/04 00:24:30;;;;;;;21.05;10.98;;;12.70;99.90;;;;;;5006399;28;20042;-68
2021/08/04 00:26:55;;;;;;;22.92;11.15;;;12.70;99.90;;;;;;5002387;28;20548;-67
2021/08/04 00:29:21;;;;;;;21.77;10.35;;;12.70;99.90;;;;;;5005703;28;20026;-68
2021/08/04 00:31:46;;;;;;;21.30;11.23;;;12.60;99.90;;;;;;5006539;28;20113;-67
2021/08/04 00:34:12;;;;;;;24.02;11.60;;;12.60;99.90;;;;;;5004691;28;20486;-67
2021/08/04 00:36:38;;;;;;;21.90;11.70;;;12.60;99.90;;;;;;5002505;28;20037;-67
2021/08/04 00:39:03;;;;;;;24.02;12.05;;;12.60;99.90;;;;;;5004778;28;20061;-66
2021/08/04 00:41:36;;;;;;;26.17;12.88;;;12.60;99.90;;;;;;5005644;28;20528;-66
2021/08/04 00:44:02;;;;;;;21.58;10.60;;;12.60;99.90;;;;;;4999513;28;20034;-66
2021/08/04 00:46:27;;;;;;;23.88;11.93;;;12.60;99.90;;;;;;5005848;28;20560;-66
2021/08/04 00:48:53;;;;;;;21.27;11.55;;;12.60;99.90;;;;;;4994307;28;20584;-66
2021/08/04 00:51:20;;;;;;;24.45;12.40;;;12.60;99.90;;;;;;5006135;28;20037;-67
2021/08/04 00:53:45;;;;;;;24.42;12.95;;;12.60;99.90;;;;;;5006031;28;20034;-66
2021/08/04 00:56:11;;;;;;;24.00;12.60;;;12.60;99.90;;;;;;5006352;28;20022;-66
2021/08/04 00:58:42;;;;;;;26.15;12.25;;;12.70;99.90;;;;;;5005280;28;20492;-66
2021/08/04 01:01:22;;;;;;;26.27;12.57;;;12.70;99.90;;;;;;4999015;28;20524;-66
2021/08/04 01:03:54;;;;;;;25.85;12.63;;;13.40;99.90;;;;;;5010596;28;20112;-66
2021/08/04 01:06:36;;;;;;;24.65;13.15;;;12.60;99.90;;;;;;4972532;28;20092;-66
2021/08/04 01:09:04;;;;;;;25.90;13.35;;;12.80;99.90;;;;;;4999784;28;20424;-66
2021/08/04 01:11:34;;;;;;;25.27;12.73;;;12.70;99.90;;;;;;5006586;28;20119;-66
2021/08/04 01:14:14;;;;;;;33.65;13.40;;;12.80;99.90;;;;;;5005406;28;20057;-67
2021/08/04 01:16:45;;;;;;;23.23;12.25;;;12.80;99.90;;;;;;5002704;28;20145;-66
2021/08/04 01:19:31;;;;;;;25.38;12.50;;;12.80;99.90;;;;;;5002074;28;20517;-67
2021/08/04 01:22:05;;;;;;;24.17;12.27;;;12.90;99.90;;;;;;5012337;28;20540;-66
2021/08/04 01:24:33;;;;;;;28.48;13.15;;;12.90;99.90;;;;;;5002542;28;20041;-67
2021/08/04 01:27:00;;;;;;;26.13;13.48;;;13.00;99.90;;;;;;4990799;28;20037;-67
2021/08/04 01:29:26;;;;;;;25.27;13.63;;;13.10;99.90;;;;;;5001737;28;20389;-66
2021/08/04 01:31:59;;;;;;;26.30;13.32;;;13.10;99.90;;;;;;5003640;28;20030;-68
2021/08/04 01:34:26;;;;;;;27.30;14.48;;;13.10;99.90;;;;;;5001686;28;20049;-67
2021/08/04 01:36:52;;;;;;;29.00;14.55;;;13.40;99.90;;;;;;5004247;28;20402;-67
2021/08/04 01:39:20;;;;;;;25.40;13.82;;;13.60;99.90;;;;;;5003048;28;20032;-67
2021/08/04 01:41:47;;;;;;;31.00;14.77;;;13.50;99.90;;;;;;5005296;28;20029;-67
2021/08/04 01:44:14;;;;;;;27.58;14.05;;;13.40;99.90;;;;;;5002506;28;20521;-67
2021/08/04 01:46:41;;;;;;;28.92;12.90;;;13.40;99.90;;;;;;4998953;28;20025;-67
2021/08/04 01:49:09;;;;;;;25.35;12.55;;;13.40;99.90;;;;;;5003352;28;20030;-67
2021/08/04 01:51:36;;;;;;;27.13;13.27;;;13.30;99.90;;;;;;5008110;28;20028;-67
2021/08/04 01:54:03;;;;;;;28.05;14.48;;;13.40;99.90;;;;;;5005435;28;20084;-67
2021/08/04 01:56:29;;;;;;;24.52;12.82;;;13.40;99.90;;;;;;5004251;28;20026;-67
2021/08/04 01:58:54;;;;;;;25.08;13.32;;;13.40;99.90;;;;;;4987779;28;20038;-67
2021/08/04 02:01:20;;;;;;;25.05;12.77;;;13.40;99.90;;;;;;5004313;28;20026;-67
2021/08/04 02:03:46;;;;;;;24.48;13.68;;;13.40;99.90;;;;;;5004956;28;20490;-67
2021/08/04 02:06:27;;;;;;;27.83;14.05;;;13.40;99.90;;;;;;5004901;28;20033;-67
2021/08/04 02:09:12;;;;;;;24.83;12.60;;;13.50;99.90;;;;;;5004745;28;20022;-67
2021/08/04 02:12:00;;;;;;;24.63;11.40;;;13.50;99.90;;;;;;5001036;28;20030;-67
2021/08/04 02:14:59;;;;;;;23.20;12.75;;;13.50;99.90;;;;;;4985239;28;20029;-67
2021/08/04 02:17:35;;;;;;;28.02;14.20;;;13.50;99.90;;;;;;5001574;28;20054;-67
2021/08/04 02:20:28;;;;;;;24.98;13.15;;;13.60;99.90;;;;;;5005171;28;20034;-67
2021/08/04 02:22:59;;;;;;;26.08;12.98;;;13.80;99.90;;;;;;5008945;28;20068;-67
2021/08/04 02:25:39;;;;;;;20.75;11.43;;;14.00;99.90;;;;;;5005616;28;20069;-67
2021/08/04 02:28:10;;;;;;;22.52;12.07;;;14.20;99.90;;;;;;5006716;28;20022;-67
2021/08/04 02:30:36;;;;;;;;;;;14.30;99.90;;;;;;5007247;28;20084;-67
2021/08/04 02:33:02;;;;;;;20.98;11.23;;;14.10;99.90;;;;;;5004268;28;19909;-67
2021/08/04 02:35:28;;;;;;;20.85;11.70;;;14.00;99.90;;;;;;5007127;28;20059;-67
2021/08/04 02:37:54;;;;;;;22.63;11.30;;;13.90;99.90;;;;;;5008466;28;20466;-67
2021/08/04 02:40:19;;;;;;;21.35;11.55;;;13.80;99.90;;;;;;5006054;28;20033;-67
2021/08/04 02:42:46;;;;;;;21.23;12.45;;;13.70;99.90;;;;;;5007464;28;20038;-67
2021/08/04 02:45:12;;;;;;;22.60;11.85;;;13.80;99.90;;;;;;5007857;28;20065;-67
2021/08/04 02:47:39;;;;;;;21.67;12.57;;;13.80;99.90;;;;;;5008363;28;20026;-67
2021/08/04 02:50:07;;;;;;;21.67;12.05;;;13.70;99.90;;;;;;5009809;28;20030;-67
2021/08/04 02:52:34;;;;;;;21.63;11.43;;;13.70;99.90;;;;;;5006655;28;20034;-67
2021/08/04 02:55:00;;;;;;;21.58;12.27;;;13.70;99.90;;;;;;5008033;28;20080;-67
2021/08/04 02:57:26;;;;;;;23.50;12.82;;;13.70;99.90;;;;;;5007353;28;20030;-67
2021/08/04 02:59:52;;;;;;;23.38;12.60;;;13.60;99.90;;;;;;5007865;28;20492;-67
2021/08/04 03:02:18;;;;;;;22.15;12.30;;;13.60;99.90;;;;;;5010207;28;20030;-67
2021/08/04 03:04:44;;;;;;;21.92;11.60;;;13.60;99.90;;;;;;5007795;28;20065;-67
2021/08/04 03:07:10;;;;;;;20.80;12.52;;;13.60;99.90;;;;;;5006257;28;20449;-67
2021/08/04 03:09:35;;;;;;;22.15;11.95;;;14.30;99.90;;;;;;4988303;28;20054;-67
2021/08/04 03:12:02;;;;;;;21.05;11.40;;;13.60;99.90;;;;;;5008104;28;20028;-67
2021/08/04 03:14:27;;;;;;;24.17;12.38;;;13.60;99.90;;;;;;5004448;28;20033;-67
2021/08/04 03:16:53;;;;;;;22.52;11.70;;;13.60;99.90;;;;;;4989839;28;20048;-67
2021/08/04 03:19:19;;;;;;;21.55;11.98;;;13.60;99.90;;;;;;5007491;28;20060;-67
2021/08/04 03:21:45;;;;;;;23.20;10.65;;;13.60;99.90;;;;;;5008073;28;20385;-67
2021/08/04 03:24:11;;;;;;;22.83;12.52;;;13.60;99.90;;;;;;5003973;28;20029;-67
2021/08/04 03:26:37;;;;;;;26.02;12.15;;;13.90;99.90;;;;;;5005701;28;20041;-67
2021/08/04 03:29:03;;;;;;;20.77;12.07;;;13.90;99.90;;;;;;5008014;28;20030;-67
2021/08/04 03:31:29;;;;;;;25.17;13.05;;;13.80;99.90;;;;;;5008697;28;20116;-67
2021/08/04 03:33:54;;;;;;;24.80;12.05;;;13.80;99.90;;;;;;5006858;28;20499;-67
2021/08/04 03:36:20;;;;;;;22.63;12.23;;;13.70;99.90;;;;;;5006310;28;20029;-68
2021/08/04 03:38:46;;;;;;;22.70;11.65;;;13.80;99.90;;;;;;5007583;28;20045;-66
2021/08/04 03:41:11;;;;;;;20.83;12.32;;;13.80;99.90;;;;;;4990587;28;20022;-67
2021/08/04 03:43:37;;;;;;;23.45;12.52;;;13.70;99.90;;;;;;5006696;28;20563;-67
2021/08/04 03:46:03;;;;;;;22.17;12.68;;;13.70;99.90;;;;;;5005360;28;20056;-67
2021/08/04 03:48:28;;;;;;;24.45;12.68;;;13.60;99.90;;;;;;5006336;28;20045;-66
2021/08/04 03:50:54;;;;;;;22.92;12.38;;;13.60;99.90;;;;;;4988680;28;20044;-67
2021/08/04 03:53:21;;;;;;;25.85;13.18;;;13.60;99.90;;;;;;5006281;28;20068;-67
2021/08/04 03:55:46;;;;;;;21.63;13.13;;;13.60;99.90;;;;;;5006510;28;20067;-67
2021/08/04 03:58:12;;;;;;;26.73;13.02;;;13.70;99.90;;;;;;4991859;28;20500;-67
2021/08/04 04:00:38;;;;;;;23.63;12.88;;;13.80;99.90;;;;;;5006268;28;20049;-67
2021/08/04 04:03:03;;;;;;;26.25;13.75;;;13.70;99.90;;;;;;5007596;28;20034;-67
2021/08/04 04:05:29;;;;;;;22.52;12.45;;;13.60;99.90;;;;;;5005858;28;20034;-67
2021/08/04 04:07:54;;;;;;;24.85;12.63;;;13.50;99.90;;;;;;5003732;28;20536;-67
2021/08/04 04:10:22;;;;;;;22.92;12.80;;;13.50;99.90;;;;;;5004705;28;20046;-67
2021/08/04 04:12:47;;;;;;;26.88;13.35;;;13.60;99.90;;;;;;5006603;28;20022;-67
2021/08/04 04:15:13;;;;;;;29.13;14.60;;;13.60;99.90;;;;;;5005294;28;20474;-67
2021/08/04 04:17:38;;;;;;;27.42;15.18;;;13.70;99.90;;;;;;5006720;28;20061;-67
2021/08/04 04:20:05;;;;;;;27.15;14.60;;;13.70;99.90;;;;;;5007165;28;20038;-66
2021/08/04 04:22:30;;;;;;;31.40;15.40;;;13.60;99.90;;;;;;5005718;28;20057;-67
2021/08/04 04:24:56;;;;;;;28.23;15.18;;;13.70;99.90;;;;;;5006174;28;20030;-67
2021/08/04 04:27:21;;;;;;;28.85;16.08;;;13.60;99.90;;;;;;5005364;28;20025;-67
2021/08/04 04:29:47;;;;;;;28.33;15.60;;;13.60;99.90;;;;;;5002188;28;20022;-67
2021/08/04 04:32:13;;;;;;;28.67;16.33;;;13.50;99.90;;;;;;5006611;28;20100;-66
2021/08/04 04:34:39;;;;;;;29.60;15.30;;;13.40;99.90;;;;;;5007140;28;20061;-67
2021/08/04 04:37:05;;;;;;;29.17;15.90;;;13.30;99.90;;;;;;5002524;28;20076;-67
2021/08/04 04:39:31;;;;;;;27.80;14.50;;;13.40;99.90;;;;;;5006001;28;20104;-66
2021/08/04 04:41:56;;;;;;;27.70;15.38;;;13.20;99.90;;;;;;4971441;28;20221;-67
2021/08/04 04:44:22;;;;;;;28.88;16.17;;;13.10;99.90;;;;;;5005501;28;20030;-68
2021/08/04 04:46:48;;;;;;;28.15;15.35;;;13.10;99.90;;;;;;5005064;28;20105;-67
2021/08/04 04:49:13;;;;;;;29.75;16.17;;;13.10;99.90;;;;;;5000977;28;20428;-67
2021/08/04 04:51:39;;;;;;;33.40;16.70;;;13.20;99.90;;;;;;5004867;28;20034;-66
2021/08/04 04:54:04;;;;;;;29.30;16.98;;;13.20;99.90;;;;;;5005811;28;20033;-67
2021/08/04 04:56:30;;;;;;;31.67;17.65;;;13.20;99.90;;;;;;5004690;28;20036;-67
2021/08/04 04:58:56;;;;;;;32.38;17.85;;;13.40;99.90;;;;;;5002802;28;20036;-66
2021/08/04 05:01:22;;;;;;;35.55;17.48;;;13.50;99.90;;;;;;5004478;28;20521;-66
2021/08/04 05:03:49;;;;;;;33.92;17.90;;;13.60;99.90;;;;;;5005154;28;20052;-66
2021/08/04 05:06:16;;;;;;;38.10;18.05;;;13.70;99.90;;;;;;5006057;28;20022;-66
2021/08/04 05:08:41;;;;;;;34.65;17.85;;;14.00;99.90;;;;;;4990275;28;20112;-67
2021/08/04 05:11:07;;;;;;;34.03;17.17;;;14.00;99.90;;;;;;5005253;28;20104;-66
2021/08/04 05:13:37;;;;;;;32.13;17.80;;;14.00;99.90;;;;;;5004915;28;20462;-67
2021/08/04 05:16:03;;;;;;;31.90;16.58;;;14.00;99.90;;;;;;5005602;28;20022;-65
2021/08/04 05:18:28;;;;;;;31.08;16.27;;;14.10;99.90;;;;;;4995690;28;20064;-66
2021/08/04 05:20:54;;;;;;;29.33;16.05;;;14.00;99.90;;;;;;5006485;28;20021;-67
2021/08/04 05:23:19;;;;;;;29.75;15.80;;;14.00;99.90;;;;;;5005333;28;20362;-67
2021/08/04 05:25:45;;;;;;;31.90;16.20;;;13.90;99.90;;;;;;4988991;28;20022;-67
2021/08/04 05:28:11;;;;;;;28.85;15.77;;;13.90;99.90;;;;;;5003399;28;20030;-67
2021/08/04 05:30:36;;;;;;;26.55;15.52;;;14.00;99.90;;;;;;5004916;28;20034;-66
2021/08/04 05:33:02;;;;;;;28.30;15.95;;;14.10;99.90;;;;;;5005782;28;20056;-67
2021/08/04 05:35:28;;;;;;;29.63;15.55;;;14.20;99.90;;;;;;4986383;28;20030;-67
2021/08/04 05:37:53;;;;;;;32.08;16.45;;;14.10;99.90;;;;;;4987620;28;20779;-70
2021/08/04 05:40:19;;;;;;;35.03;17.33;;;14.20;99.90;;;;;;5005603;28;20056;-69
2021/08/04 05:42:44;;;;;;;31.05;16.75;;;14.30;99.90;;;;;;5001794;28;20548;-69
2021/08/04 05:45:10;;;;;;;31.83;16.73;;;14.40;99.90;;;;;;5002079;28;20501;-67
2021/08/04 05:47:36;;;;;;;29.08;16.05;;;14.50;99.90;;;;;;5004685;28;20104;-69
2021/08/04 05:50:02;;;;;;;27.45;15.98;;;14.60;99.90;;;;;;5001734;28;20069;-69
2021/08/04 05:52:28;;;;;;;26.83;15.05;;;14.80;99.90;;;;;;5004259;28;20050;-69
2021/08/04 05:54:54;;;;;;;26.73;14.90;;;15.00;99.90;;;;;;5000901;28;20068;-69
2021/08/04 05:57:19;;;;;;;25.98;14.25;;;15.00;99.90;;;;;;5002710;28;20084;-68
2021/08/04 05:59:45;;;;;;;23.95;13.93;;;15.00;99.90;;;;;;5002975;28;20546;-69
2021/08/04 06:02:10;;;;;;;22.63;12.93;;;15.30;99.90;;;;;;5003525;28;20050;-69
2021/08/04 06:04:36;;;;;;;24.27;14.07;;;15.30;99.90;;;;;;5003740;28;20112;-69
2021/08/04 06:07:01;;;;;;;20.00;12.07;;;15.40;99.90;;;;;;5010972;28;20018;-68
2021/08/04 06:09:30;;;;;;;26.08;13.65;;;15.50;99.90;;;;;;5002914;28;20045;-68
2021/08/04 06:11:55;;;;;;;21.90;13.35;;;15.50;99.90;;;;;;5005378;28;20108;-69
2021/08/04 06:14:21;;;;;;;23.55;13.48;;;15.50;99.90;;;;;;5005640;28;20121;-69
2021/08/04 06:16:46;;;;;;;24.83;12.95;;;15.40;99.90;;;;;;5003294;28;20539;-69
2021/08/04 06:19:12;;;;;;;22.35;12.27;;;15.20;99.90;;;;;;5001928;28;20037;-69
2021/08/04 06:21:38;;;;;;;20.27;11.50;;;15.20;99.90;;;;;;5002837;28;20026;-69
2021/08/04 06:24:04;;;;;;;22.20;11.75;;;15.10;99.90;;;;;;5003718;28;20466;-69
2021/08/04 06:26:29;;;;;;;21.73;12.45;;;15.00;99.90;;;;;;5002616;28;20120;-69
2021/08/04 06:28:55;;;;;;;19.33;11.90;;;14.90;99.90;;;;;;5002229;28;20032;-69
2021/08/04 06:31:20;;;;;;;22.10;12.32;;;14.80;99.90;;;;;;5003409;28;20096;-69
2021/08/04 06:33:46;;;;;;;20.95;12.85;;;14.90;99.90;;;;;;4990029;28;20042;-69
2021/08/04 06:36:11;;;;;;;21.05;12.65;;;14.90;99.90;;;;;;4982804;28;20030;-69
2021/08/04 06:38:37;;;;;;;21.33;12.98;;;14.90;99.90;;;;;;4986345;28;20033;-69
2021/08/04 06:41:03;;;;;;;22.90;12.98;;;14.90;99.90;;;;;;4997505;28;20447;-69
2021/08/04 06:43:29;;;;;;;20.83;12.43;;;14.80;99.90;;;;;;4998974;28;20034;-69
2021/08/04 06:45:54;;;;;;;23.75;12.98;;;14.90;99.90;;;;;;5004164;28;20530;-69
2021/08/04 06:48:20;;;;;;;22.38;14.25;;;15.10;99.90;;;;;;5002836;28;20041;-69
2021/08/04 06:50:46;;;;;;;22.05;12.82;;;15.20;99.90;;;;;;5002690;28;20041;-69
2021/08/04 06:53:12;;;;;;;24.20;13.65;;;15.40;99.90;;;;;;5003741;28;20424;-69
2021/08/04 06:55:37;;;;;;;22.75;12.70;;;15.50;99.90;;;;;;5003107;28;20116;-69
2021/08/04 06:58:03;;;;;;;22.83;13.52;;;15.60;99.90;;;;;;5004911;28;20022;-69
2021/08/04 07:00:29;;;;;;;22.45;12.60;;;15.70;99.90;;;;;;5001575;28;20026;-68
2021/08/04 07:02:54;;;;;;;21.85;12.35;;;15.90;99.90;;;;;;5004857;28;20120;-69
2021/08/04 07:05:20;;;;;;;23.25;12.32;;;16.00;99.90;;;;;;5008357;28;20084;-69
2021/08/04 07:07:46;;;;;;;17.15;9.75;;;16.20;99.90;;;;;;5007775;28;20037;-69
2021/08/04 07:10:13;;;;;;;17.65;10.25;;;16.40;99.90;;;;;;5003930;28;20026;-68
2021/08/04 07:12:39;;;;;;;20.58;10.27;;;16.50;99.90;;;;;;5006702;28;20099;-69
2021/08/04 07:15:05;;;;;;;18.42;10.18;;;16.60;99.90;;;;;;5003287;28;20516;-68
2021/08/04 07:17:49;;;;;;;18.25;10.15;;;16.70;99.90;;;;;;4994818;28;20540;-69
2021/08/04 07:20:19;;;;;;;15.98;9.45;;;16.80;99.90;;;;;;5005424;28;20038;-69
2021/08/04 07:22:47;;;;;;;22.40;10.55;;;17.10;99.90;;;;;;5007290;28;20036;-68
2021/08/04 07:25:14;;;;;;;19.38;9.43;;;17.10;99.90;;;;;;5008092;28;20052;-69
2021/08/04 07:27:39;;;;;;;16.65;9.60;;;17.40;99.90;;;;;;5006388;28;20030;-69
2021/08/04 07:30:07;;;;;;;17.30;10.43;;;17.60;99.90;;;;;;5003496;28;20029;-69
2021/08/04 07:32:33;;;;;;;18.05;9.82;;;17.70;99.90;;;;;;5005509;28;20025;-69
2021/08/04 07:35:00;;;;;;;17.88;10.30;;;17.90;99.90;;;;;;5003992;28;20389;-69
2021/08/04 07:37:27;;;;;;;18.48;10.90;;;17.90;99.90;;;;;;5006845;28;20033;-69
2021/08/04 07:39:53;;;;;;;15.95;9.07;;;17.90;99.90;;;;;;5002622;28;20056;-69
2021/08/04 07:42:19;;;;;;;18.08;10.43;;;18.00;99.90;;;;;;5001025;28;20089;-69
2021/08/04 07:44:46;;;;;;;16.55;10.13;;;18.10;99.90;;;;;;5004283;28;20274;-69
2021/08/04 07:47:12;;;;;;;16.60;9.73;;;18.30;99.90;;;;;;5005598;28;20064;-70
2021/08/04 07:49:37;;;;;;;15.30;9.30;;;18.30;99.90;;;;;;5002847;28;20112;-69
2021/08/04 07:52:03;;;;;;;18.02;9.88;;;18.40;99.90;;;;;;5006733;28;20033;-69
2021/08/04 07:54:29;;;;;;;17.33;9.50;;;18.60;99.90;;;;;;5004967;28;20326;-70
2021/08/04 07:56:54;;;;;;;15.38;9.70;;;18.80;99.90;;;;;;5004059;28;20079;-69
2021/08/04 07:59:20;;;;;;;17.40;9.10;;;18.90;99.90;;;;;;5005085;28;20478;-69
2021/08/04 08:01:46;;;;;;;17.30;9.50;;;18.80;99.90;;;;;;5005391;28;20111;-69
2021/08/04 08:04:11;;;;;;;18.38;8.82;;;18.70;99.90;;;;;;5003119;28;20044;-69
2021/08/04 08:06:37;;;;;;;15.93;8.70;;;18.80;99.90;;;;;;5005831;28;20492;-69
2021/08/04 08:09:03;;;;;;;15.10;8.52;;;18.90;99.90;;;;;;5004968;28;20034;-69
2021/08/04 08:11:28;;;;;;;14.25;7.50;;;19.00;99.90;;;;;;5005367;28;20093;-68
2021/08/04 08:13:54;;;;;;;14.00;8.02;;;19.10;99.90;;;;;;5005800;28;20061;-69
2021/08/04 08:16:19;;;;;;;13.10;7.50;;;19.00;99.90;;;;;;4983623;28;20124;-69
2021/08/04 08:18:46;;;;;;;15.88;8.20;;;19.20;99.90;;;;;;4986209;28;20038;-69
2021/08/04 08:21:11;;;;;;;13.10;8.07;;;19.60;99.90;;;;;;4987159;28;20045;-69
2021/08/04 08:23:37;;;;;;;12.05;7.38;;;20.30;99.90;;;;;;4988811;28;20034;-68
2021/08/04 08:26:04;;;;;;;13.90;6.82;;;20.60;99.90;;;;;;4985756;28;20141;-68
2021/08/04 08:28:29;;;;;;;12.60;6.18;;;21.10;99.90;;;;;;4987955;28;20121;-68
2021/08/04 08:30:55;;;;;;;11.15;6.45;;;20.80;99.90;;;;;;4988259;28;20495;-68
2021/08/04 08:33:21;;;;;;;12.57;6.80;;;20.80;99.90;;;;;;4989234;28;20026;-68
2021/08/04 08:35:46;;;;;;;12.55;6.78;;;21.60;99.90;;;;;;4980444;28;20046;-68
2021/08/04 08:38:12;;;;;;;12.50;6.65;;;22.50;99.90;;;;;;4986166;28;20073;-68
2021/08/04 08:40:38;;;;;;;14.20;6.63;;;22.70;99.90;;;;;;4981277;28;20042;-68
2021/08/04 08:43:04;;;;;;;11.38;6.53;;;23.20;99.90;;;;;;4980130;28;20346;-68
2021/08/04 08:45:30;;;;;;;14.57;6.68;;;23.30;99.90;;;;;;4984349;28;20058;-69
2021/08/04 08:47:57;;;;;;;11.70;6.60;;;24.00;99.90;;;;;;5000307;28;20030;-68
2021/08/04 08:50:25;;;;;;;11.68;6.63;;;22.90;99.90;;;;;;5002941;28;20037;-68
2021/08/04 08:52:53;;;;;;;12.77;7.28;;;23.10;99.90;;;;;;5004331;28;20365;-69
2021/08/04 08:55:19;;;;;;;11.57;6.10;;;23.70;99.90;;;;;;5005454;28;20029;-68
2021/08/04 08:57:45;;;;;;;12.02;5.90;;;24.30;99.90;;;;;;5006081;28;20033;-69
2021/08/04 09:00:11;;;;;;;11.60;6.00;;;24.70;99.90;;;;;;5005253;28;20499;-68
2021/08/04 09:02:36;;;;;;;11.80;6.30;;;25.80;99.60;;;;;;5006172;28;20061;-68
2021/08/04 09:05:15;;;;;;;10.15;6.00;;;25.80;99.40;;;;;;5003951;28;20516;-68
2021/08/04 09:07:43;;;;;;;11.80;6.05;;;24.90;99.90;;;;;;5003787;28;20026;-68
2021/08/04 09:10:26;;;;;;;11.73;6.30;;;24.80;99.90;;;;;;5005056;28;20029;-68
2021/08/04 09:12:59;;;;;;;11.48;6.82;;;23.70;99.90;;;;;;5004561;28;20014;-68
2021/08/04 09:15:42;;;;;;;10.98;6.30;;;22.40;99.90;;;;;;5005056;28;20095;-68
2021/08/04 09:18:16;;;;;;;11.48;6.50;;;21.50;99.90;;;;;;4997698;28;20057;-69
2021/08/04 09:20:54;;;;;;;12.18;5.93;;;21.00;99.90;;;;;;5004015;28;20512;-68
2021/08/04 09:23:25;;;;;;;13.18;6.90;;;21.00;99.90;;;;;;5000816;28;20030;-68
2021/08/04 09:26:16;;;;;;;14.73;6.60;;;20.80;99.90;;;;;;5000549;28;20026;-68
2021/08/04 09:28:57;;;;;;;12.73;5.93;;;21.50;99.90;;;;;;4982741;28;20133;-68
2021/08/04 09:31:44;;;;;;;10.00;5.38;;;21.40;99.90;;;;;;5004449;28;20485;-68
2021/08/04 09:34:36;;;;;;;13.73;5.90;;;21.80;99.90;;;;;;5000530;28;20034;-68
2021/08/04 09:37:11;;;;;;;12.30;6.32;;;21.70;99.90;;;;;;5002978;28;20044;-68
2021/08/04 09:39:39;;;;;;;9.93;4.72;;;21.20;99.90;;;;;;5000364;28;20018;-68
2021/08/04 09:42:05;;;;;;;11.13;5.63;;;21.40;99.90;;;;;;5004338;28;20026;-67
2021/08/04 09:44:30;;;;;;;10.63;5.45;;;21.30;99.90;;;;;;4983986;28;20049;-68
2021/08/04 09:47:11;;;;;;;9.00;4.50;;;21.10;99.90;;;;;;5004041;28;20032;-68
2021/08/04 09:49:37;;;;;;;9.60;5.40;;;21.40;99.90;;;;;;5002132;28;20125;-68
2021/08/04 09:52:11;;;;;;;11.85;5.20;;;21.30;99.90;;;;;;4997614;28;20034;-68
2021/08/04 09:54:42;;;;;;;9.05;4.70;;;21.60;99.90;;;;;;5000951;28;20044;-68
2021/08/04 09:57:09;;;;;;;13.38;5.85;;;21.70;99.90;;;;;;5001128;28;20021;-68
2021/08/04 09:59:35;;;;;;;9.35;4.63;;;22.50;99.90;;;;;;5003757;28;20030;-68
2021/08/04 10:02:02;;;;;;;11.48;4.70;;;22.60;99.90;;;;;;5001516;28;20025;-68
2021/08/04 10:04:28;;;;;;;10.23;4.90;;;23.00;99.90;;;;;;5003996;28;20088;-68
2021/08/04 10:07:23;;;;;;;9.13;4.47;;;23.20;99.90;;;;;;4998675;28;20062;-68
2021/08/04 10:09:48;;;;;;;9.35;4.28;;;23.20;99.90;;;;;;4979992;28;20453;-67
2021/08/04 10:12:14;;;;;;;9.50;4.82;;;24.50;99.90;;;;;;5000008;28;20057;-68
2021/08/04 10:14:40;;;;;;;9.30;4.07;;;26.10;97.10;;;;;;5000882;28;20045;-69
2021/08/04 10:17:06;;;;;;;9.15;4.20;;;28.00;93.40;;;;;;5001333;28;20045;-69
2021/08/04 10:19:32;;;;;;;9.43;3.58;;;26.80;94.90;;;;;;4999863;28;20389;-68
2021/08/04 10:21:58;;;;;;;9.23;3.97;;;26.20;96.60;;;;;;4999580;28;20128;-68
2021/08/04 10:24:25;;;;;;;12.20;4.25;;;25.30;96.80;;;;;;5004037;28;20423;-68
2021/08/04 10:26:51;;;;;;;8.85;3.78;;;23.80;98.30;;;;;;5001341;28;21330;-68
2021/08/04 10:29:19;;;;;;;10.15;3.95;;;23.50;99.90;;;;;;5004700;28;20032;-68
2021/08/04 10:31:46;;;;;;;8.80;4.07;;;23.50;99.90;;;;;;4990431;28;20026;-68
2021/08/04 10:34:12;;;;;;;8.90;4.07;;;23.60;99.90;;;;;;5003883;28;20141;-68
2021/08/04 10:36:42;;;;;;;10.10;4.32;;;23.00;99.90;;;;;;5008347;28;20112;-68
2021/08/04 10:39:10;;;;;;;7.80;3.58;;;22.50;99.90;;;;;;4997288;28;20026;-68
2021/08/04 10:41:37;;;;;;;9.15;3.10;;;22.40;99.90;;;;;;5008701;28;20034;-68
2021/08/04 10:44:19;;;;;;;9.68;3.95;;;22.30;99.90;;;;;;5008429;28;20037;-69
2021/08/04 10:46:45;;;;;;;7.88;3.40;;;21.80;99.90;;;;;;5008806;28;20323;-68
2021/08/04 10:49:10;;;;;;;7.72;3.58;;;21.60;99.90;;;;;;5008239;28;20036;-69
2021/08/04 10:51:43;;;;;;;7.57;3.78;;;21.90;99.90;;;;;;5008560;28;20319;-68
2021/08/04 10:54:14;;;;;;;9.30;3.60;;;21.70;99.90;;;;;;5007498;28;20022;-69
2021/08/04 10:56:42;;;;;;;8.68;3.80;;;21.80;99.90;;;;;;5007902;28;20049;-69
2021/08/04 10:59:08;;;;;;;8.63;4.03;;;22.30;99.90;;;;;;5007190;28;20501;-69
2021/08/04 11:01:37;;;;;;;9.45;3.95;;;22.00;99.90;;;;;;5007959;28;20030;-68
2021/08/04 11:04:10;;;;;;;7.97;3.70;;;21.80;99.90;;;;;;5007718;28;20516;-68
2021/08/04 11:07:15;;;;;;;8.13;3.38;;;22.00;99.90;;;;;;5007541;28;20051;-69
2021/08/04 11:09:54;;;;;;;7.10;3.13;;;22.00;99.90;;;;;;5004217;28;20018;-69
2021/08/04 11:12:41;;;;;;;8.98;3.92;;;21.90;99.90;;;;;;5009692;28;20494;-69
2021/08/04 11:15:24;;;;;;;8.02;3.42;;;22.10;99.90;;;;;;4999226;28;20045;-69
2021/08/04 11:18:19;;;;;;;10.38;3.85;;;22.20;99.90;;;;;;5008467;28;20045;-69
2021/08/04 11:21:14;;;;;;;8.52;3.72;;;22.10;99.90;;;;;;4974249;28;20295;-68
2021/08/04 11:23:48;;;;;;;7.82;3.33;;;22.10;99.90;;;;;;5004307;28;20048;-69
2021/08/04 11:26:26;;;;;;;8.52;4.10;;;21.90;99.90;;;;;;5006022;28;20037;-70
2021/08/04 11:28:52;;;;;;;8.90;4.20;;;22.00;99.90;;;;;;5002576;28;20037;-69
2021/08/04 11:31:19;;;;;;;8.68;3.78;;;22.20;99.90;;;;;;5004685;28;20022;-68
2021/08/04 11:33:45;;;;;;;9.90;3.92;;;22.10;99.90;;;;;;5005207;28;20771;-69
2021/08/04 11:36:15;;;;;;;7.78;3.72;;;22.50;99.90;;;;;;5005260;28;20079;-68
2021/08/04 11:38:51;;;;;;;7.47;3.67;;;22.50;99.90;;;;;;5004147;28;20021;-69
2021/08/04 11:41:21;;;;;;;9.38;3.80;;;22.80;99.90;;;;;;5004703;28;20021;-69
2021/08/04 11:43:48;;;;;;;9.40;3.78;;;23.40;99.90;;;;;;5004386;28;20114;-69
2021/08/04 11:46:36;;;;;;;7.65;3.47;;;23.00;99.90;;;;;;5000704;28;20026;-69
2021/08/04 11:49:09;;;;;;;10.27;3.40;;;22.90;99.90;;;;;;5004865;28;20029;-69
2021/08/04 11:51:55;;;;;;;8.38;3.50;;;22.90;99.90;;;;;;5004429;28;20038;-69
2021/08/04 11:54:52;;;;;;;8.48;3.63;;;23.20;99.90;;;;;;5002048;28;20033;-69
2021/08/04 11:57:20;;;;;;;7.70;3.60;;;23.40;99.90;;;;;;4984903;28;20539;-69
2021/08/04 11:59:51;;;;;;;7.30;3.88;;;23.50;99.90;;;;;;4986622;28;20542;-69
2021/08/04 12:02:18;;;;;;;9.32;4.05;;;23.30;99.90;;;;;;5005163;28;20045;-69
2021/08/04 12:04:47;;;;;;;9.00;3.67;;;24.10;99.60;;;;;;4986215;28;20098;-68
2021/08/04 12:07:14;;;;;;;8.13;3.38;;;24.90;99.70;;;;;;5006146;28;20026;-69
2021/08/04 12:09:40;;;;;;;7.78;3.22;;;25.10;99.90;;;;;;4987853;28;20030;-69
2021/08/04 12:12:29;;;;;;;7.13;3.40;;;25.40;98.90;;;;;;5005789;28;20044;-68
2021/08/04 12:14:55;;;;;;;7.50;3.65;;;28.10;95.60;;;;;;5006039;28;20117;-68
2021/08/04 12:17:35;;;;;;;7.78;3.70;;;27.50;94.40;;;;;;5006357;28;20140;-68
2021/08/04 12:20:11;;;;;;;7.82;2.80;;;27.30;94.50;;;;;;5005590;28;20026;-69
2021/08/04 12:22:37;;;;;;;6.78;3.40;;;27.70;95.10;;;;;;5006225;28;20029;-69
2021/08/04 12:25:04;;;;;;;6.82;3.20;;;27.70;92.90;;;;;;5005425;28;20481;-69
2021/08/04 12:27:38;;;;;;;8.63;3.70;;;27.60;93.00;;;;;;5001019;28;20113;-69
2021/08/04 12:30:14;;;;;;;8.85;3.95;;;28.10;91.60;;;;;;5005825;28;20030;-69
2021/08/04 12:33:17;;;;;;;7.07;3.65;;;28.30;90.80;;;;;;5000851;28;20057;-68
2021/08/04 12:35:50;;;;;;;7.60;3.28;;;26.50;92.30;;;;;;5004654;28;20022;-68
2021/08/04 12:38:20;;;;;;;7.97;2.95;;;25.40;94.30;;;;;;5004503;28;20034;-69
2021/08/04 12:40:48;;;;;;;10.05;4.07;;;25.00;95.20;;;;;;5008060;28;20056;-69